createdAt,value
2023-01-31T00:01:32.711Z,11.60
2023-01-31T00:04:02.934Z,11.70
2023-01-31T00:06:32.136Z,12.30
2023-01-31T00:09:00.508Z,11.80
2023-01-31T00:11:28.488Z,12.10
2023-01-31T00:13:55.624Z,13.50
2023-01-31T00:16:22.898Z,12.60
2023-01-31T00:18:51.847Z,12.70
2023-01-31T00:21:26.601Z,12.80
2023-01-31T00:23:54.362Z,12.00
2023-01-31T00:26:26.438Z,13.10
2023-01-31T00:28:54.310Z,12.60
2023-01-31T00:31:22.695Z,12.60
2023-01-31T00:33:51.151Z,11.80
2023-01-31T00:36:20.657Z,12.30
2023-01-31T00:38:54.047Z,13.40
2023-01-31T00:41:22.018Z,13.60
2023-01-31T00:43:50.173Z,13.60
2023-01-31T00:46:19.919Z,13.10
2023-01-31T00:48:47.358Z,14.20
2023-01-31T00:51:14.716Z,13.20
2023-01-31T00:53:41.645Z,13.00
2023-01-31T00:56:13.931Z,14.50
2023-01-31T00:58:45.277Z,13.60
2023-01-31T01:01:14.840Z,14.50
2023-01-31T01:03:43.056Z,14.10
2023-01-31T01:06:10.403Z,13.20
2023-01-31T01:08:38.288Z,13.30
2023-01-31T01:11:37.707Z,14.80
2023-01-31T01:14:04.829Z,13.90
2023-01-31T01:16:35.544Z,14.30
2023-01-31T01:19:05.279Z,13.90
2023-01-31T01:21:32.622Z,15.20
2023-01-31T01:24:01.273Z,14.50
2023-01-31T01:26:30.938Z,14.10
2023-01-31T01:28:58.795Z,13.20
2023-01-31T01:31:30.120Z,13.50
2023-01-31T01:34:01.984Z,13.10
2023-01-31T01:36:29.443Z,13.50
2023-01-31T01:38:56.696Z,14.00
2023-01-31T01:41:24.158Z,14.90
2023-01-31T01:43:52.111Z,14.60
2023-01-31T01:46:21.318Z,16.40
2023-01-31T01:48:50.639Z,14.70
2023-01-31T01:51:18.909Z,13.70
2023-01-31T01:53:47.373Z,14.40
2023-01-31T01:56:18.963Z,15.20
2023-01-31T01:58:47.407Z,14.90
2023-01-31T02:01:16.439Z,14.00
2023-01-31T06:07:16.927Z,21.20
2023-01-31T06:09:44.106Z,20.00
2023-01-31T06:12:14.737Z,19.50
2023-01-31T06:14:41.753Z,19.60
2023-01-31T06:17:09.241Z,18.50
2023-01-31T06:19:36.800Z,18.40
2023-01-31T06:22:06.825Z,21.50
2023-01-31T06:24:33.864Z,20.30
2023-01-31T06:27:00.914Z,19.20
2023-01-31T06:29:27.978Z,19.80
2023-01-31T06:31:55.105Z,19.20
2023-01-31T06:34:22.356Z,19.80
2023-01-31T06:36:49.512Z,20.90
2023-01-31T06:39:16.863Z,20.90
2023-01-31T06:41:44.008Z,20.70
2023-01-31T06:44:12.810Z,21.90
2023-01-31T06:46:39.948Z,21.10
2023-01-31T06:49:06.790Z,22.20
2023-01-31T06:51:34.039Z,20.70
2023-01-31T06:54:01.087Z,19.60
2023-01-31T06:56:28.651Z,22.90
2023-01-31T06:58:55.979Z,21.10
2023-01-31T07:01:23.970Z,22.00
2023-01-31T07:03:51.020Z,21.10
2023-01-31T07:06:20.008Z,21.70
2023-01-31T07:08:48.281Z,21.60
2023-01-31T07:11:15.336Z,21.10
2023-01-31T07:13:45.661Z,21.70
2023-01-31T07:16:14.342Z,22.30
2023-01-31T07:18:41.264Z,23.50
2023-01-31T07:21:08.636Z,23.20
2023-01-31T07:23:35.683Z,21.30
2023-01-31T07:26:04.594Z,21.80
2023-01-31T07:28:32.200Z,21.30
2023-01-31T07:31:06.968Z,22.10
2023-01-31T07:33:34.211Z,22.30
2023-01-31T07:36:04.141Z,22.90
2023-01-31T07:38:32.350Z,21.80
2023-01-31T07:41:00.576Z,23.00
2023-01-31T07:43:27.524Z,23.60
2023-01-31T07:45:55.079Z,22.50
2023-01-31T07:48:25.001Z,21.80
2023-01-31T07:50:53.067Z,21.10
2023-01-31T07:53:20.226Z,23.20
2023-01-31T07:55:47.652Z,23.00
2023-01-31T07:58:15.845Z,23.70
2023-01-31T08:01:01.582Z,21.90
2023-01-31T08:03:33.684Z,22.00
2023-01-31T08:06:07.982Z,23.60
2023-01-31T08:08:36.008Z,23.00
2023-01-31T08:11:04.768Z,23.50
2023-01-31T08:13:35.213Z,67.30
2023-01-31T08:16:03.974Z,26.00
2023-01-31T08:18:30.925Z,25.00
2023-01-31T08:20:58.696Z,23.10
2023-01-31T08:23:27.270Z,24.30
2023-01-31T08:26:04.761Z,23.00
2023-01-31T08:28:32.809Z,23.10
2023-01-31T08:31:08.573Z,25.20
2023-01-31T08:33:37.896Z,23.60
2023-01-31T08:36:16.194Z,23.50
2023-01-31T08:38:44.170Z,21.90
2023-01-31T08:41:12.085Z,22.80
2023-01-31T08:43:54.429Z,21.10
2023-01-31T08:46:29.582Z,21.80
2023-01-31T08:48:56.466Z,22.40
2023-01-31T08:51:24.186Z,22.30
2023-01-31T08:53:51.527Z,20.80
2023-01-31T08:56:20.830Z,24.70
2023-01-31T08:58:47.887Z,19.40
2023-01-31T09:01:16.222Z,21.10
2023-01-31T09:03:45.162Z,22.40
2023-01-31T09:06:17.512Z,22.50
2023-01-31T09:08:44.561Z,22.50
2023-01-31T09:11:16.732Z,23.80
2023-01-31T09:15:01.205Z,21.40
2023-01-31T09:17:28.767Z,22.20
2023-01-31T09:19:56.536Z,22.70
2023-01-31T09:22:23.766Z,22.40
2023-01-31T09:24:50.813Z,24.10
2023-01-31T09:27:17.861Z,23.30
2023-01-31T09:29:45.054Z,23.60
2023-01-31T09:32:12.156Z,23.80
2023-01-31T09:34:39.409Z,23.90
2023-01-31T09:37:06.561Z,24.30
2023-01-31T09:39:34.336Z,23.40
2023-01-31T09:42:13.864Z,23.60
2023-01-31T09:44:42.253Z,25.30
2023-01-31T09:47:21.983Z,24.20
2023-01-31T09:49:52.408Z,24.20
2023-01-31T09:52:19.967Z,24.60
2023-01-31T09:54:46.833Z,23.40
2023-01-31T09:57:17.032Z,24.40
2023-01-31T10:00:03.337Z,25.20
2023-01-31T10:02:38.375Z,24.20
2023-01-31T16:06:31.859Z,26.80
2023-01-31T16:09:01.205Z,26.10
2023-01-31T16:11:33.291Z,24.10
2023-01-31T16:14:02.577Z,21.30
2023-01-31T16:16:29.754Z,20.80
2023-01-31T16:18:57.988Z,19.80
2023-01-31T16:21:31.179Z,18.40
2023-01-31T16:23:59.556Z,19.60
2023-01-31T16:26:30.096Z,18.10
2023-01-31T16:28:59.018Z,18.40
2023-01-31T16:31:29.311Z,17.30
2023-01-31T16:33:59.640Z,17.40
2023-01-31T16:36:49.712Z,18.30
2023-01-31T16:39:30.077Z,19.50
2023-01-31T16:41:58.315Z,18.00
2023-01-31T16:44:28.359Z,17.60
2023-01-31T16:46:55.314Z,18.30
2023-01-31T16:49:29.569Z,19.20
2023-01-31T16:52:17.569Z,18.30
2023-01-31T16:55:12.358Z,17.00
2023-01-31T16:57:39.253Z,17.00
2023-01-31T17:00:24.587Z,17.10
2023-01-31T17:02:52.381Z,17.30
2023-01-31T17:05:24.609Z,17.90
2023-01-31T17:07:53.297Z,17.70
2023-01-31T17:10:22.700Z,18.00
2023-01-31T17:12:50.764Z,18.00
2023-01-31T17:15:19.921Z,18.30
2023-01-31T17:17:50.695Z,18.60
2023-01-31T17:20:19.076Z,19.50
2023-01-31T17:22:56.928Z,18.70
2023-01-31T17:25:34.265Z,17.50
2023-01-31T17:30:30.034Z,18.70
2023-01-31T17:32:58.064Z,19.20
2023-01-31T17:35:39.138Z,18.90
2023-01-31T17:38:06.389Z,19.30
2023-01-31T17:40:33.716Z,19.60
2023-01-31T17:43:02.342Z,18.90
2023-01-31T17:45:29.376Z,18.50
2023-01-31T17:47:56.531Z,20.40
2023-01-31T17:50:28.082Z,18.80
2023-01-31T17:52:55.230Z,19.30
2023-01-31T17:55:24.112Z,17.60
2023-01-31T17:57:52.498Z,18.00
2023-01-31T18:00:20.355Z,18.40
2023-01-31T18:02:47.766Z,19.80
2023-01-31T18:05:24.593Z,18.80
2023-01-31T18:07:58.704Z,17.60
2023-01-31T18:10:25.954Z,18.50
2023-01-31T18:12:53.107Z,19.20
2023-01-31T18:15:20.578Z,19.00
2023-01-31T18:17:49.155Z,20.00
2023-01-31T18:20:18.659Z,22.10
2023-01-31T18:22:46.108Z,18.80
2023-01-31T18:25:13.357Z,17.80
2023-01-31T18:27:41.222Z,18.50
2023-01-31T18:30:09.192Z,17.80
2023-01-31T18:32:36.133Z,18.70
2023-01-31T18:35:06.047Z,18.30
2023-01-31T18:37:33.402Z,18.80
2023-01-31T18:40:00.451Z,18.30
2023-01-31T18:42:29.236Z,18.50
2023-01-31T18:44:56.194Z,19.70
2023-01-31T18:47:23.534Z,18.90
2023-01-31T18:49:50.712Z,18.60
2023-01-31T18:52:18.044Z,19.20
2023-01-31T18:54:48.547Z,17.90
2023-01-31T18:57:15.510Z,18.50
2023-01-31T18:59:42.583Z,18.30
2023-01-31T19:02:11.409Z,21.00
2023-01-31T19:04:38.710Z,20.00
2023-01-31T19:07:06.265Z,20.70
2023-01-31T19:09:33.543Z,20.20
2023-01-31T19:12:04.755Z,20.40
2023-01-31T19:14:32.824Z,19.80
2023-01-31T19:17:00.288Z,21.00
2023-01-31T19:19:27.540Z,20.60
2023-01-31T19:21:54.581Z,20.10
2023-01-31T19:24:21.634Z,20.40
2023-01-31T19:27:05.575Z,21.40
2023-01-31T19:29:33.030Z,20.50
2023-01-31T19:32:00.060Z,24.20
2023-01-31T19:34:27.233Z,26.70
2023-01-31T19:36:54.410Z,22.80
2023-01-31T19:39:21.527Z,22.10
2023-01-31T19:41:48.683Z,21.10
2023-01-31T19:44:16.023Z,19.60
2023-01-31T19:46:43.514Z,19.90
2023-01-31T19:49:10.525Z,18.60
2023-01-31T19:51:37.777Z,18.30
2023-01-31T19:54:06.261Z,17.50
2023-01-31T19:56:33.348Z,17.80
2023-01-31T19:59:00.669Z,18.70
2023-01-31T20:01:28.022Z,17.80
2023-01-31T20:03:55.209Z,20.30
2023-01-31T20:06:27.332Z,20.20
2023-01-31T20:08:59.161Z,18.90
2023-01-31T20:11:27.570Z,18.10
2023-01-31T20:13:56.867Z,16.80
2023-01-31T20:16:24.369Z,16.70
2023-01-31T20:18:52.723Z,17.10
2023-01-31T20:21:21.089Z,18.60
2023-01-31T20:23:51.002Z,16.40
2023-01-31T20:26:18.808Z,16.80
2023-01-31T20:28:46.111Z,16.60
2023-01-31T20:31:14.041Z,17.50
2023-01-31T20:33:41.239Z,17.40
2023-01-31T20:36:08.518Z,17.00
2023-01-31T20:38:37.378Z,17.50
2023-01-31T20:41:06.767Z,18.30
2023-01-31T20:43:34.130Z,19.00
2023-01-31T20:46:08.584Z,19.00
2023-01-31T20:48:35.715Z,17.70
2023-01-31T20:51:02.951Z,19.40
2023-01-31T20:53:30.194Z,19.70
2023-01-31T20:55:57.884Z,18.90
2023-01-31T20:58:27.058Z,20.40
2023-01-31T21:00:54.956Z,16.70
2023-01-31T21:03:22.177Z,16.20
2023-01-31T21:05:50.059Z,23.70
2023-01-31T21:08:18.217Z,17.50
2023-01-31T21:10:51.919Z,17.20
2023-01-31T21:13:20.008Z,21.20
2023-01-31T21:15:50.627Z,18.90
2023-01-31T21:18:17.986Z,20.10
2023-01-31T21:20:45.224Z,18.50
2023-01-31T21:23:12.170Z,15.30
2023-01-31T21:25:39.212Z,17.20
2023-01-31T21:28:06.271Z,16.20
2023-01-31T21:30:33.414Z,17.00
2023-01-31T21:33:00.374Z,16.30
2023-01-31T21:35:27.504Z,16.00
2023-01-31T21:37:54.859Z,15.60
2023-01-31T21:40:22.150Z,16.30
2023-01-31T21:42:53.364Z,15.30
2023-01-31T21:45:38.941Z,15.40
2023-01-31T21:48:28.613Z,16.60
2023-01-31T21:50:56.482Z,15.60
2023-01-31T21:53:23.636Z,14.10
2023-01-31T21:55:59.175Z,15.00
2023-01-31T21:58:26.464Z,15.30
2023-01-31T22:00:53.479Z,16.00
2023-01-31T22:03:20.531Z,17.50
2023-01-31T22:05:49.004Z,20.00
2023-01-31T22:08:16.251Z,17.90
2023-01-31T22:10:43.090Z,16.70
2023-01-31T22:13:10.763Z,14.60
2023-01-31T22:15:37.945Z,14.50
2023-01-31T22:18:05.360Z,13.00
2023-01-31T22:20:32.407Z,13.40
2023-01-31T22:23:00.171Z,14.40
2023-01-31T22:25:27.215Z,14.10
2023-01-31T22:27:56.311Z,14.70
2023-01-31T22:30:23.358Z,14.00
2023-01-31T22:32:51.334Z,15.80
2023-01-31T22:35:18.375Z,13.40
2023-01-31T22:37:45.521Z,15.10
2023-01-31T22:40:13.191Z,14.70
2023-01-31T22:42:43.619Z,14.00
2023-01-31T22:45:11.171Z,14.60
2023-01-31T22:47:38.730Z,14.80
2023-01-31T22:50:06.389Z,14.20
2023-01-31T22:52:33.332Z,13.90
2023-01-31T22:55:00.499Z,13.80
2023-01-31T22:57:27.524Z,14.00
2023-01-31T22:59:54.473Z,14.60
2023-01-31T23:02:21.417Z,14.70
2023-01-31T23:04:48.463Z,15.80
2023-01-31T23:07:16.227Z,17.80
2023-01-31T23:09:43.479Z,15.10
2023-01-31T23:12:10.731Z,15.20
2023-01-31T23:14:37.788Z,17.50
2023-01-31T23:17:23.154Z,18.50
2023-01-31T23:19:53.757Z,14.80
2023-01-31T23:22:20.729Z,14.60
2023-01-31T23:24:47.571Z,17.10
2023-01-31T23:27:14.928Z,16.70
2023-01-31T23:29:41.973Z,13.60
2023-01-31T23:32:09.146Z,13.40
2023-01-31T23:34:36.167Z,13.50
2023-01-31T23:37:04.037Z,12.20
2023-01-31T23:39:31.389Z,12.30
2023-01-31T23:41:58.332Z,12.40
2023-01-31T23:44:25.587Z,12.70
2023-01-31T23:46:52.545Z,13.50
2023-01-31T23:49:19.472Z,12.50
2023-01-31T23:51:46.519Z,11.10
2023-01-31T23:54:13.777Z,12.50
2023-01-31T23:56:40.951Z,11.00
2023-01-31T23:59:08.070Z,12.50
